x

Gulf Of Maine - 78 Nm East Of Portsmouth, Nh (44005) Wave Buoy

11:50 - Tue 19th Aug 2014 All times are EDT. -4 hours from GMT.

  • Sig Wave height 1.3ft
  • Peak Period 9s
  • Average Period 5s
  • Wind
    11mph
  • Sea Temp 66°f
  • Ar Temp 66°f
  • Sea Pressure 1014mb
  • Gulf Of Maine - 78 Nm East Of Portsmouth, Nh
  • Gulf Of Maine - 78 Nm East Of Portsmouth, Nh

More Historic Weather Station data

Upgrade to MSW Pro to gain access to the past 30 days of data for over 8000 Wavebouys and Weather Stations around the globe.

Join Pro

Comparision Forecast

View Surf forecast
   
Ter 08/19 11:50 1.3ft 9s 5s 11
mph
1014mb 66f 66f
10:50 1ft 8s 5s 11
mph
1013.7mb 66f 66f
9:50 1.3ft 8s 6s 11
mph
1013.5mb 67f 66f
8:50 1ft 12s 6s 7
mph
1013.4mb 67f 66f
7:50 1.3ft 7s 6s 9
mph
1013.1mb 67f 65f
6:50 1.3ft 9s 6s 7
mph
1012.8mb 67f 66f
5:50 1ft 12s 6s 7
mph
1012.7mb 67f 66f
4:50 1ft 8s 5s 7 9 mph 1012.8mb 67f 66f
3:50 1ft 8s 6s 9
mph
1012.7mb 67f 65f
2:50 1ft 8s 6s 7 9 mph 1012.5mb 67f 65f
1:50 1ft 9s 5s 7
mph
1012.6mb 67f 64f
12:50 1ft 8s 5s 7 9 mph 1012.9mb 67f 64f
11:50  -   -   -  7
mph
- - -
10:50  -   -   -  7 9 mph 1012.7mb 66f 63f
9:50 1.3ft 8s 4s 7 9 mph 1012.5mb 66f 63f
8:50 1.3ft 8s 4s 9 11 mph 1012.1mb 66f 63f
7:50 1.3ft 9s 4s 9 11 mph 1011.7mb 66f 63f
6:50 1.6ft 9s 4s 9 11 mph 1011.3mb 66f 62f
5:50  -   -   -  9 11 mph 1010.9mb 66f 62f
4:50 1.6ft 10s 4s 9 11 mph 1010.5mb 66f 62f
3:50 1.6ft 9s 4s 9
mph
1010.1mb 66f 63f
2:50 1.6ft 3s 4s 11
mph
1010.1mb 66f 63f
1:50  -   -   -  11 13 mph 1010.3mb 66f 63f
Seg 08/18 11:50 2ft 8s 4s 13 16 mph 1010.2mb 66f 65f
10:50 1.6ft 9s 4s 16 18 mph 1009.7mb 66f 66f
9:50 1.6ft 8s 4s 11 13 mph 1009.6mb 66f 66f
8:50 1.6ft 10s 4s 13 16 mph 1009.4mb 66f 66f
7:50 1.6ft 9s 4s 11 13 mph 1008.6mb 66f 66f
6:50 1.6ft 9s 5s 11 13 mph 1008.2mb 66f 67f
5:50 1.6ft 10s 4s 11 13 mph 1007.8mb 66f 67f
4:50 2ft 3s 4s 11 13 mph 1007.7mb 66f 66f
3:50 2ft 8s 4s 11 13 mph 1007.5mb 66f 66f
2:50 2ft 7s 4s 13 16 mph 1007.6mb 66f 66f
1:50 2.5ft 4s 4s 13 18 mph 1007.7mb 66f 65f
12:50 2.5ft 4s 4s 16 18 mph 1007.6mb 66f 64f
11:50 2.5ft 3s 4s 18 20 mph 1007.6mb 66f 64f
10:50  -   -   -  16 20 mph 1007.7mb 66f 64f
9:50 2.5ft 3s 4s 18 20 mph 1007.5mb 66f 64f
8:50 2.5ft 4s 4s 18 20 mph 1007.3mb 66f 65f
7:50 2.5ft 4s 4s 16 20 mph 1007.1mb 66f 64f
6:50  -   -   -  16 18 mph 1006.9mb 66f 64f
5:50 2.5ft 6s 4s 16 20 mph 1006.4mb 66f 64f
4:50 2.5ft 6s 4s 16 18 mph 1006.1mb 66f 64f
3:50 2.5ft 6s 4s 13 18 mph 1006.2mb 65f 64f
2:50 2.5ft 6s 4s 16 18 mph 1006.4mb 66f 64f
1:50  -   -   -  13 16 mph 1006.6mb 66f 65f
12:50  -   -   -  16 20 mph 1007.2mb 66f 65f
Dom 08/17 11:50  -   -   -  16 20 mph 1007.4mb 66f 65f
10:50 1.6ft 8s 5s 16 18 mph 1007.4mb 66f 66f
8:50 1.3ft 8s 5s 9 11 mph 1007.6mb 67f 66f
7:50 1.6ft 8s 5s 7 9 mph 1006.9mb 67f 67f
6:50 2ft 9s 4s 7 9 mph 1006.7mb 67f 67f
5:50 2ft 8s 4s 7 9 mph 1006.8mb 67f 67f
4:50 2.5ft 3s 4s 7 9 mph 1006.9mb 67f 67f
3:50 2.5ft 3s 4s 9
mph
1006.8mb 67f 67f
2:50 2.5ft 6s 4s 11 13 mph 1007.1mb 67f 67f
1:50 2ft 5s 4s 11 13 mph 1007.3mb 67f 67f
12:50 2ft 6s 4s 9 11 mph 1007.9mb 67f 67f
11:50 2ft 7s 4s 11 13 mph 1008.2mb 67f 67f
10:50 2ft 7s 5s 11 13 mph 1008.7mb 67f 67f
9:50 2ft 7s 5s 11 13 mph 1009mb 66f 67f
8:50 2ft 5s 4s 11 13 mph 1009.1mb 66f 67f
7:50 2ft 5s 4s 11
mph
1009.6mb 66f 67f
6:50 2.5ft 5s 5s 9 11 mph 1009.8mb 66f 67f
5:50 2.5ft 5s 5s 11 13 mph 1010mb 66f 67f
4:50 3ft 5s 4s 9 11 mph 1010.1mb 66f 67f
3:50 3.5ft 6s 4s 11 13 mph 1010.4mb 66f 67f
2:50 4ft 6s 4s 16 20 mph 1010.9mb 66f 67f
1:50 3.5ft 5s 4s 18 22 mph 1011.5mb 66f 67f
12:50  -   -   -  16 18 mph 1011.8mb 66f 67f
Sáb 08/16 11:50 3.5ft 6s 4s 16 18 mph 1012.2mb 66f 67f
10:50 2.5ft 7s 4s 13 16 mph 1012.4mb 66f 67f
9:50 2.5ft 7s 4s 13
mph
1012.8mb 66f 67f
8:50 2.5ft 8s 4s 11 13 mph 1013mb 66f 67f
7:50 2.5ft 6s 4s 13 16 mph 1013mb 66f 67f
6:50 2.5ft 8s 4s 13
mph
1012.9mb 66f 67f
5:50 2.5ft 5s 4s 13 16 mph 1012.9mb 66f 68f
4:50 3ft 5s 5s 13 16 mph 1012.9mb 66f 68f
3:50 3ft 5s 4s 13 16 mph 1012.9mb 66f 67f
2:50 3ft 5s 5s 16 18 mph 1012.9mb 66f 66f
1:50 3.5ft 7s 5s 16 18 mph 1013.3mb 66f 65f
12:50 3.5ft 5s 4s 16 18 mph 1013.4mb 66f 65f
11:50 3.5ft 7s 4s 18 20 mph 1013.7mb 66f 64f
10:50 3.5ft 7s 4s 16 18 mph 1013.6mb 66f 64f
9:50 3.5ft 4s 4s 18 20 mph 1013.4mb 66f 65f
8:50 3.5ft 4s 4s 18 20 mph 1013.2mb 66f 64f
7:50 4ft 4s 4s 20 22 mph 1012.8mb 65f 64f
6:50 4ft 5s 4s 18 20 mph 1012.2mb 65f 64f
5:50 4.5ft 4s 4s 22 25 mph 1011.6mb 65f 64f